Time;durP1;ratioP1;P1;durP2;ratioP2;P2;SDS_P1;SDS_P2;PMS_P1;PMS_P2;Temp;Humidity;BMP_temperature;BMP_pressure;BME280_temperature;BME280_humidity;BME280_pressure;Samples;Min_cycle;Max_cycle;Signal;HPM_P1;HPM_P2
2022/09/14 00:00:49;;;;;;;4.60;2.33;;;;;;;17.63;67.22;100247.84;5038470;28;20029;-75
2022/09/14 00:03:16;;;;;;;4.47;2.45;;;;;;;17.77;67.08;100286.19;5048290;28;20044;-75
2022/09/14 00:05:42;;;;;;;5.10;2.67;;;;;;;17.84;67.04;100297.53;5050541;28;20025;-72
2022/09/14 00:08:08;;;;;;;4.53;2.80;;;;;;;17.75;68.01;100288.78;5047695;28;20029;-83
2022/09/14 00:10:41;;;;;;;4.80;2.60;;;;;;;17.82;67.91;100300.13;5015690;28;20030;-84
2022/09/14 00:13:07;;;;;;;4.05;2.72;;;;;;;17.78;67.98;100298.34;5031510;28;20026;-83
2022/09/14 00:15:37;;;;;;;3.75;2.83;;;;;;;17.70;67.72;100292.25;5013590;28;20100;-80
2022/09/14 00:18:04;;;;;;;9.38;2.78;;;;;;;17.73;67.34;100302.69;5032524;28;20029;-86
2022/09/14 00:20:30;;;;;;;5.75;3.10;;;;;;;17.66;67.67;100295.69;5011969;28;20084;-78
2022/09/14 00:22:56;;;;;;;6.13;3.00;;;;;;;17.44;68.25;100266.88;5035907;28;20041;-79
2022/09/14 00:25:21;;;;;;;5.30;3.03;;;;;;;17.45;68.91;100284.28;5025875;28;20033;-85
2022/09/14 00:27:46;;;;;;;3.20;2.53;;;;;;;17.43;68.97;100301.66;5027687;28;20464;-80
2022/09/14 00:30:12;;;;;;;4.97;3.05;;;;;;;17.45;69.04;100298.19;5008295;28;20663;-81
2022/09/14 00:32:38;;;;;;;8.82;3.13;;;;;;;17.40;69.41;100291.22;5008769;28;20668;-82
2022/09/14 00:35:04;;;;;;;4.18;2.67;;;;;;;17.40;69.50;100296.44;4990923;28;20704;-75
2022/09/14 00:37:29;;;;;;;5.20;2.83;;;;;;;17.45;69.40;100294.72;5008590;28;20030;-74
2022/09/14 00:39:54;;;;;;;4.25;2.60;;;;;;;17.48;69.14;100299.94;5008755;28;20109;-74
2022/09/14 00:42:20;;;;;;;8.07;3.08;;;;;;;17.44;68.56;100309.47;5008055;28;20034;-75
2022/09/14 00:44:45;;;;;;;5.22;3.28;;;;;;;17.39;68.82;100305.13;5008048;28;20041;-75
2022/09/14 00:47:11;;;;;;;4.80;2.80;;;;;;;17.40;69.49;100306.88;5008076;28;20065;-74
2022/09/14 00:49:39;;;;;;;5.43;2.70;;;;;;;17.42;68.85;100299.91;5008313;28;20038;-73
2022/09/14 00:52:13;;;;;;;5.60;3.20;;;;;;;17.36;68.61;100298.16;5008016;28;20037;-74
2022/09/14 00:54:47;;;;;;;6.10;3.45;;;;;;;17.20;69.50;100301.53;5008271;28;20085;-73
2022/09/14 00:57:13;;;;;;;4.60;2.85;;;;;;;17.07;70.22;100303.16;5007013;28;20546;-75
2022/09/14 00:59:41;;;;;;;8.95;3.30;;;;;;;16.84;71.18;100297.72;5008332;28;20085;-75
2022/09/14 01:02:08;;;;;;;6.30;3.17;;;;;;;16.77;71.68;100302.91;5044988;28;20064;-77
2022/09/14 01:04:35;;;;;;;6.07;3.50;;;;;;;16.76;72.12;100308.97;5050000;28;20033;-75
2022/09/14 01:07:21;;;;;;;5.53;3.17;;;;;;;16.77;72.54;100302.00;5050556;28;20111;-76
2022/09/14 01:09:59;;;;;;;4.97;3.55;;;;;;;16.70;72.56;100308.91;5049916;28;20037;-76
2022/09/14 01:12:24;;;;;;;5.03;3.05;;;;;;;16.65;72.78;100310.59;5050305;28;20471;-74
2022/09/14 01:15:01;;;;;;;4.78;3.38;;;;;;;16.63;72.66;100313.16;5049723;28;20040;-74
2022/09/14 01:17:52;;;;;;;4.82;3.22;;;;;;;16.65;72.74;100316.66;5048136;28;20025;-77
2022/09/14 01:20:25;;;;;;;6.43;3.50;;;;;;;16.64;72.68;100316.66;5049162;28;20092;-71
2022/09/14 01:23:21;;;;;;;4.05;3.35;;;;;;;16.63;72.87;100314.91;5049738;28;20126;-74
2022/09/14 01:26:27;;;;;;;5.65;3.33;;;;;;;16.62;73.06;100316.66;5050122;28;20025;-72
2022/09/14 01:28:57;;;;;;;4.93;3.42;;;;;;;16.68;72.90;100314.97;4949610;29;20553;-77
2022/09/14 01:31:45;;;;;;;4.32;3.30;;;;;;;16.63;73.17;100315.78;4949684;29;20039;-76
2022/09/14 01:34:35;;;;;;;5.53;3.45;;;;;;;16.63;73.08;100307.94;4949582;29;20035;-73
2022/09/14 01:37:54;;;;;;;4.82;3.30;;;;;;;16.64;72.59;100311.44;4949256;29;20036;-73
2022/09/14 01:40:34;;;;;;;4.47;3.30;;;;;;;16.56;73.41;100311.38;4911294;29;20114;-78
2022/09/14 01:43:28;;;;;;;6.95;3.33;;;;;;;16.57;73.46;100320.94;4895588;29;20070;-75
2022/09/14 01:46:03;;;;;;;5.75;3.85;;;;;;;16.43;73.86;100306.91;4836975;29;20045;-70
2022/09/14 01:48:43;;;;;;;4.80;3.55;;;;;;;16.52;74.01;100317.41;4837022;29;20045;-77
2022/09/14 01:51:12;;;;;;;;;;;;;;;16.63;73.25;100310.56;4836830;29;20556;-74
2022/09/14 01:53:43;;;;;;;5.28;3.10;;;;;;;16.63;72.34;100294.06;4836823;29;19917;-75
2022/09/14 01:56:23;;;;;;;6.45;3.42;;;;;;;16.58;72.68;100308.78;4836663;29;20049;-76
2022/09/14 01:59:07;;;;;;;5.00;3.78;;;;;;;16.46;73.20;100314.72;4836674;29;20066;-72
2022/09/14 02:01:55;;;;;;;7.13;4.30;;;;;;;16.32;73.59;100322.41;4819913;29;20604;-73
2022/09/14 02:04:30;;;;;;;5.60;3.80;;;;;;;16.32;73.85;100312.00;4823768;29;20038;-77
2022/09/14 02:06:56;;;;;;;4.07;3.30;;;;;;;16.37;73.47;100312.06;4855566;29;20402;-75
2022/09/14 02:09:25;;;;;;;7.82;3.85;;;;;;;16.36;73.74;100318.09;4858723;29;20156;-74
2022/09/14 02:11:52;;;;;;;7.90;3.53;;;;;;;16.24;74.20;100322.34;4858726;29;20042;-75
2022/09/14 02:14:18;;;;;;;5.15;3.83;;;;;;;15.87;76.04;100336.63;4884223;29;20045;-70
2022/09/14 02:16:45;;;;;;;4.93;3.45;;;;;;;15.51;76.57;100281.47;4903632;29;20118;-70
2022/09/14 02:19:12;;;;;;;5.35;3.75;;;;;;;15.79;76.13;100321.75;4914713;29;20507;-72
2022/09/14 02:21:38;;;;;;;7.03;4.20;;;;;;;15.94;75.54;100328.91;4915073;28;20043;-73
2022/09/14 02:24:04;;;;;;;5.47;3.90;;;;;;;16.06;75.06;100329.94;4971844;28;20461;-72
2022/09/14 02:26:30;;;;;;;5.97;3.58;;;;;;;16.04;74.62;100303.88;4971793;28;20070;-74
2022/09/14 02:28:56;;;;;;;4.57;3.47;;;;;;;16.15;74.39;100324.84;4971788;28;20039;-76
2022/09/14 02:31:34;;;;;;;8.20;3.88;;;;;;;16.15;74.07;100328.31;4971678;28;20989;-75
2022/09/14 02:34:14;;;;;;;5.70;3.50;;;;;;;16.24;74.00;100330.16;4971812;28;20035;-80
2022/09/14 02:37:07;;;;;;;4.63;3.67;;;;;;;16.29;73.05;100327.59;4971733;28;20050;-79
2022/09/14 02:40:10;;;;;;;6.18;3.70;;;;;;;16.23;73.46;100328.41;4971741;28;20034;-80
2022/09/14 02:42:57;;;;;;;8.05;4.20;;;;;;;16.05;74.26;100334.28;5050201;28;20487;-79
2022/09/14 02:45:51;;;;;;;5.20;3.92;;;;;;;15.78;75.44;100320.00;5052473;28;20025;-78
2022/09/14 02:48:40;;;;;;;7.30;4.22;;;;;;;15.49;77.22;100340.44;5052527;28;20387;-79
2022/09/14 02:51:20;;;;;;;5.53;3.80;;;;;;;15.17;79.02;100339.06;5052799;28;20028;-77
2022/09/14 02:53:51;;;;;;;7.15;4.25;;;;;;;15.02;79.78;100342.28;5052452;28;20090;-81
2022/09/14 02:56:18;;;;;;;7.40;4.55;;;;;;;15.01;80.07;100334.47;5052729;28;20032;-79
2022/09/14 02:58:44;;;;;;;8.30;4.60;;;;;;;14.86;80.38;100324.69;5052580;28;20100;-77
2022/09/14 03:01:16;;;;;;;5.60;4.38;;;;;;;14.86;80.81;100341.16;5042624;28;20109;-77
2022/09/14 03:03:42;;;;;;;8.45;4.22;;;;;;;14.65;81.32;100312.19;5032639;28;20492;-76
2022/09/14 03:06:07;;;;;;;7.30;4.50;;;;;;;14.78;80.90;100327.16;5032958;28;20071;-77
2022/09/14 03:08:33;;;;;;;8.32;4.80;;;;;;;14.83;81.34;100346.31;5032694;28;20108;-82
2022/09/14 03:10:58;;;;;;;10.20;4.68;;;;;;;14.85;81.06;100339.41;5031987;28;20025;-80
2022/09/14 03:13:24;;;;;;;6.97;4.50;;;;;;;14.91;80.29;100337.78;5032390;28;20033;-81
2022/09/14 03:15:50;;;;;;;7.95;4.40;;;;;;;15.08;80.29;100346.72;5032840;28;20407;-77
2022/09/14 03:18:16;;;;;;;9.10;4.63;;;;;;;14.93;79.56;100303.16;5032021;28;20033;-81
2022/09/14 03:20:42;;;;;;;8.30;4.35;;;;;;;15.21;78.78;100340.00;5031987;28;20026;-77
2022/09/14 03:23:09;;;;;;;9.85;4.07;;;;;;;15.25;78.62;100336.56;5032488;28;20061;-77
2022/09/14 03:25:37;;;;;;;8.80;4.38;;;;;;;15.29;78.28;100341.00;5032514;28;20033;-75
2022/09/14 03:28:03;;;;;;;8.57;4.50;;;;;;;15.36;77.51;100347.16;5032479;28;20438;-76
2022/09/14 03:30:29;;;;;;;7.90;4.15;;;;;;;15.39;77.70;100344.63;5032382;28;20025;-75
2022/09/14 03:32:54;;;;;;;6.40;4.13;;;;;;;15.41;77.07;100345.50;5032483;28;20087;-81
2022/09/14 03:35:20;;;;;;;11.73;4.65;;;;;;;15.41;76.90;100339.44;5032404;28;20033;-77
2022/09/14 03:37:46;;;;;;;10.27;4.38;;;;;;;15.42;76.70;100338.59;5032293;28;20025;-76
2022/09/14 03:40:13;;;;;;;6.07;4.22;;;;;;;15.39;76.80;100330.72;5032837;28;20079;-76
2022/09/14 03:42:47;;;;;;;8.75;5.00;;;;;;;15.42;76.35;100339.44;5052186;28;20037;-76
2022/09/14 03:45:15;;;;;;;7.78;4.05;;;;;;;15.36;76.28;100349.75;5052014;28;20400;-82
2022/09/14 03:47:41;;;;;;;8.27;4.25;;;;;;;15.36;76.19;100352.34;5051898;28;20037;-81
2022/09/14 03:50:09;;;;;;;5.75;3.55;;;;;;;15.22;75.78;100305.34;5051846;28;20479;-83
2022/09/14 03:52:35;;;;;;;6.82;3.58;;;;;;;15.45;75.22;100336.00;5052190;28;20549;-83
2022/09/14 03:55:02;;;;;;;6.10;3.70;;;;;;;15.31;75.56;100333.22;5051880;28;20040;-82
2022/09/14 03:57:27;;;;;;;7.03;4.60;;;;;;;15.32;75.43;100329.75;5051769;28;20052;-79
2022/09/14 03:59:52;;;;;;;6.47;4.03;;;;;;;15.37;75.01;100349.78;5051772;28;20025;-78
2022/09/14 04:02:18;;;;;;;6.82;4.10;;;;;;;15.32;75.21;100345.38;5051869;28;20017;-76
2022/09/14 04:04:44;;;;;;;7.72;4.20;;;;;;;15.15;75.96;100340.78;5051619;28;20045;-76
2022/09/14 04:07:09;;;;;;;5.07;4.00;;;;;;;14.70;76.47;100294.97;5051742;28;20100;-76
2022/09/14 04:09:35;;;;;;;6.20;4.18;;;;;;;14.86;77.35;100346.34;5051363;28;20057;-75
2022/09/14 04:12:00;;;;;;;6.57;4.10;;;;;;;14.69;77.11;100312.28;5051704;28;20107;-77
2022/09/14 04:14:26;;;;;;;8.85;3.97;;;;;;;14.94;76.85;100348.22;5051563;28;20094;-76
2022/09/14 04:16:51;;;;;;;8.40;3.97;;;;;;;14.64;77.99;100351.97;5051303;28;20028;-76
2022/09/14 04:19:17;;;;;;;4.78;3.65;;;;;;;14.30;79.90;100353.94;5051405;28;20040;-76
2022/09/14 04:21:42;;;;;;;5.25;3.67;;;;;;;14.15;80.71;100354.50;5051497;28;20021;-81
2022/09/14 04:24:11;;;;;;;6.97;4.30;;;;;;;14.11;80.54;100337.13;5051214;28;20106;-75
2022/09/14 04:26:37;;;;;;;6.03;4.03;;;;;;;14.24;80.54;100359.88;5050146;28;20029;-77
2022/09/14 04:29:03;;;;;;;7.43;4.18;;;;;;;14.33;80.01;100372.16;5033466;28;20052;-75
2022/09/14 04:31:29;;;;;;;4.97;3.88;;;;;;;14.29;80.06;100379.00;5050902;28;20364;-75
2022/09/14 04:33:55;;;;;;;6.65;4.03;;;;;;;14.32;80.14;100368.72;5051048;28;20035;-73
2022/09/14 04:36:27;;;;;;;6.93;4.60;;;;;;;14.33;80.02;100373.06;5051272;28;20028;-72
2022/09/14 04:38:53;;;;;;;5.97;4.35;;;;;;;14.30;80.30;100377.31;5051084;28;20755;-75
2022/09/14 04:41:20;;;;;;;4.70;3.92;;;;;;;14.32;79.92;100379.09;5051103;28;20039;-73
2022/09/14 04:43:48;;;;;;;7.00;4.20;;;;;;;14.29;79.66;100368.63;5051106;28;20029;-76
2022/09/14 04:46:22;;;;;;;11.82;4.03;;;;;;;14.28;80.10;100372.09;5051019;28;20032;-73
2022/09/14 04:48:49;;;;;;;6.18;4.13;;;;;;;14.33;79.80;100378.25;5050983;28;20057;-73
2022/09/14 04:51:17;;;;;;;5.55;4.00;;;;;;;14.29;80.02;100379.00;5050884;28;20032;-72
2022/09/14 04:53:44;;;;;;;6.82;4.15;;;;;;;14.13;80.24;100354.47;5051051;28;20025;-73
2022/09/14 04:56:11;;;;;;;7.88;4.30;;;;;;;14.34;79.94;100374.81;5050894;28;20029;-71
2022/09/14 04:58:45;;;;;;;6.75;3.85;;;;;;;14.21;81.01;100396.19;5050652;28;20376;-76
2022/09/14 05:01:16;;;;;;;6.85;4.15;;;;;;;14.18;81.85;100390.91;5050984;28;20108;-72
2022/09/14 05:03:42;;;;;;;7.80;3.90;;;;;;;13.99;83.01;100387.91;5050356;28;20546;-74
2022/09/14 05:06:11;;;;;;;6.45;3.75;;;;;;;14.20;82.40;100378.84;5032769;28;20384;-78
2022/09/14 05:54:54;;;;;;;8.00;3.65;;;;;;;15.89;77.27;100393.06;5047156;28;20552;-80
2022/09/14 05:57:20;;;;;;;5.90;3.58;;;;;;;15.82;77.87;100381.69;5052817;28;20033;-77
2022/09/14 05:59:45;;;;;;;5.45;3.53;;;;;;;15.78;77.79;100369.44;5053744;28;20525;-78
2022/09/14 06:02:10;;;;;;;4.65;3.65;;;;;;;15.93;78.87;100394.84;5054097;28;20048;-81
2022/09/14 06:04:36;;;;;;;5.70;3.90;;;;;;;16.17;78.66;100396.03;5053827;28;20029;-77
2022/09/14 06:07:03;;;;;;;7.18;3.95;;;;;;;16.32;75.92;100406.66;5054061;28;20032;-79
2022/09/14 06:09:30;;;;;;;4.05;3.25;;;;;;;16.47;74.94;100389.44;5050304;28;20452;-80
2022/09/14 06:11:56;;;;;;;5.40;3.70;;;;;;;16.71;72.68;100390.56;5053945;28;20027;-78
2022/09/14 06:14:21;;;;;;;7.10;3.47;;;;;;;17.02;70.42;100403.97;5053916;28;20036;-77
2022/09/14 06:16:49;;;;;;;5.05;3.50;;;;;;;17.21;68.86;100405.00;5053741;28;20566;-78
2022/09/14 06:19:15;;;;;;;5.30;3.85;;;;;;;17.25;69.39;100401.56;5053698;28;20056;-79
2022/09/14 06:21:41;;;;;;;7.22;3.78;;;;;;;17.52;68.74;100400.03;5053949;28;20392;-73
2022/09/14 06:24:09;;;;;;;6.88;3.53;;;;;;;17.74;67.51;100406.25;5053655;28;20029;-74
2022/09/14 06:26:34;;;;;;;8.95;3.58;;;;;;;17.92;67.53;100411.59;5043483;28;20454;-75
2022/09/14 06:29:00;;;;;;;5.53;3.25;;;;;;;18.04;64.62;100407.34;5033705;28;20041;-74
2022/09/14 06:31:25;;;;;;;7.90;3.03;;;;;;;18.17;64.23;100403.03;5033490;28;20093;-74
2022/09/14 06:33:51;;;;;;;7.70;3.58;;;;;;;18.36;63.69;100414.47;5033623;28;20041;-75
2022/09/14 06:36:22;;;;;;;5.68;3.70;;;;;;;18.48;63.72;100417.13;5028735;28;20034;-75
2022/09/14 06:38:49;;;;;;;5.53;3.58;;;;;;;18.53;63.58;100404.06;5030938;28;20029;-75
2022/09/14 06:41:18;;;;;;;5.85;3.50;;;;;;;18.76;62.12;100415.44;5033286;28;20105;-75
2022/09/14 06:43:44;;;;;;;4.10;3.03;;;;;;;18.72;61.24;100374.47;5012831;28;20029;-77
2022/09/14 06:46:18;;;;;;;9.32;3.33;;;;;;;19.04;61.04;100396.34;5033169;28;20391;-77
2022/09/14 06:49:05;;;;;;;6.82;3.40;;;;;;;19.21;59.13;100405.06;5030608;28;20032;-77
2022/09/14 06:51:46;;;;;;;4.28;3.30;;;;;;;19.27;60.38;100406.84;5031218;28;20020;-77
2022/09/14 06:54:14;;;;;;;5.82;3.40;;;;;;;19.42;60.22;100405.97;5031284;28;20073;-76
2022/09/14 06:56:41;;;;;;;5.03;3.50;;;;;;;19.61;59.64;100414.66;5033092;28;20029;-77
2022/09/14 06:59:09;;;;;;;4.53;3.10;;;;;;;19.70;57.47;100416.41;5024274;28;20125;-78
2022/09/14 07:01:35;;;;;;;5.88;3.38;;;;;;;19.81;59.30;100412.03;5032796;28;20018;-78
2022/09/14 07:04:00;;;;;;;6.07;3.22;;;;;;;19.93;58.01;100413.78;5032601;28;20103;-80
2022/09/14 07:06:29;;;;;;;5.70;3.03;;;;;;;19.98;57.00;100398.06;5032705;28;20022;-78
2022/09/14 07:08:54;;;;;;;4.95;3.22;;;;;;;20.15;56.08;100424.19;5032648;28;20028;-76
2022/09/14 07:11:24;;;;;;;6.22;3.03;;;;;;;20.27;54.74;100418.03;5032894;28;20033;-78
2022/09/14 07:13:50;;;;;;;;;;;;;;;20.33;54.83;100424.13;5033095;28;20020;-76
2022/09/14 07:16:15;;;;;;;4.30;2.80;;;;;;;20.22;55.70;100423.28;5032059;28;20007;-78
2022/09/14 07:18:41;;;;;;;5.80;3.78;;;;;;;20.33;54.52;100420.63;5032484;28;20022;-77
2022/09/14 07:21:09;;;;;;;5.00;2.60;;;;;;;20.45;54.26;100419.69;5032491;28;20193;-77
2022/09/14 07:23:36;;;;;;;5.10;3.00;;;;;;;20.38;56.96;100426.72;5032146;28;20032;-79
2022/09/14 07:26:07;;;;;;;5.07;2.80;;;;;;;20.34;53.26;100422.38;5032546;28;20439;-75
2022/09/14 07:28:33;;;;;;;7.07;2.70;;;;;;;20.08;52.79;100423.34;5032186;28;20035;-76
2022/09/14 07:31:00;;;;;;;6.35;2.88;;;;;;;19.90;52.82;100413.78;5032227;28;20032;-75
2022/09/14 07:33:26;;;;;;;3.88;2.75;;;;;;;19.96;52.31;100412.88;5032253;28;20025;-76
2022/09/14 07:35:52;;;;;;;5.32;2.60;;;;;;;20.13;52.17;100408.47;5027746;28;20045;-74
2022/09/14 07:38:18;;;;;;;4.47;2.70;;;;;;;20.49;50.84;100408.34;5031816;28;20025;-74
2022/09/14 07:40:44;;;;;;;5.50;2.65;;;;;;;20.76;50.85;100409.09;5032135;28;20022;-77
2022/09/14 07:43:09;;;;;;;5.15;2.90;;;;;;;20.73;50.92;100409.97;4996864;28;20046;-74
2022/09/14 07:45:36;;;;;;;6.72;2.88;;;;;;;20.66;50.46;100395.09;5032069;28;20115;-75
2022/09/14 07:48:03;;;;;;;5.15;2.60;;;;;;;21.16;49.50;100424.56;5031608;28;20030;-75
2022/09/14 07:50:28;;;;;;;3.78;2.90;;;;;;;21.25;48.80;100395.59;5031641;28;20450;-75
2022/09/14 07:52:53;;;;;;;3.45;2.75;;;;;;;21.39;48.47;100420.88;5031675;28;20109;-75
2022/09/14 07:55:19;;;;;;;4.03;3.03;;;;;;;21.19;51.62;100418.44;5031755;28;20045;-75
2022/09/14 07:57:45;;;;;;;5.07;2.67;;;;;;;21.20;49.26;100421.03;5031467;28;20075;-74
2022/09/14 08:00:13;;;;;;;5.95;2.92;;;;;;;21.15;49.45;100393.94;5031587;28;20030;-77
2022/09/14 08:02:38;;;;;;;4.88;2.90;;;;;;;21.18;48.92;100393.91;5031419;28;20519;-76
2022/09/14 08:05:04;;;;;;;6.07;2.90;;;;;;;21.58;48.53;100411.13;5030981;28;20040;-82
2022/09/14 08:07:30;;;;;;;4.20;2.60;;;;;;;21.84;47.72;100402.09;5031174;28;20498;-82
2022/09/14 08:09:56;;;;;;;3.47;2.63;;;;;;;22.08;46.23;100398.31;5031408;28;20026;-73
2022/09/14 08:12:21;;;;;;;5.10;2.50;;;;;;;22.26;46.05;100397.25;4979926;28;20037;-72
2022/09/14 08:14:47;;;;;;;5.30;2.58;;;;;;;22.26;46.43;100387.56;5031195;28;20411;-81
2022/09/14 08:17:12;;;;;;;3.55;2.88;;;;;;;22.26;46.96;100384.09;5031206;28;20163;-79
2022/09/14 08:19:40;;;;;;;3.50;2.65;;;;;;;22.35;46.55;100396.25;5013417;28;20021;-80
2022/09/14 08:22:05;;;;;;;5.10;2.97;;;;;;;22.09;48.17;100385.19;5013934;28;20059;-78
2022/09/14 08:24:32;;;;;;;4.95;3.67;;;;;;;22.07;48.65;100384.31;5013178;28;20514;-75
2022/09/14 08:26:58;;;;;;;6.90;3.97;;;;;;;22.14;49.25;100379.84;5031015;28;20029;-75
2022/09/14 08:29:23;;;;;;;5.47;3.35;;;;;;;22.22;46.88;100382.38;4995568;28;20037;-76
2022/09/14 08:31:50;;;;;;;4.38;3.50;;;;;;;22.38;51.22;100383.06;5031166;28;20032;-74
2022/09/14 08:34:17;;;;;;;4.60;3.50;;;;;;;22.48;47.58;100374.19;5030846;28;20456;-82
2022/09/14 08:36:44;;;;;;;4.85;3.15;;;;;;;22.53;45.46;100367.09;5030491;28;20030;-81
2022/09/14 08:39:11;;;;;;;4.82;3.58;;;;;;;22.69;44.81;100369.50;5030390;28;20029;-80
2022/09/14 08:41:49;;;;;;;3.70;3.08;;;;;;;22.80;44.26;100364.09;5027915;28;20029;-81
2022/09/14 08:44:24;;;;;;;5.30;3.28;;;;;;;22.86;43.92;100361.34;5028863;28;20025;-78
2022/09/14 08:47:08;;;;;;;5.25;3.15;;;;;;;22.98;42.48;100355.00;5028091;28;20112;-75
2022/09/14 08:50:16;;;;;;;6.82;4.07;;;;;;;23.30;44.58;100349.22;5028743;28;20029;-74
2022/09/14 08:52:52;;;;;;;4.57;3.15;;;;;;;23.23;41.77;100350.25;5029593;28;20419;-79
2022/09/14 08:55:40;;;;;;;5.32;3.28;;;;;;;23.35;42.27;100344.78;5029216;28;20045;-76
2022/09/14 08:58:08;;;;;;;8.00;3.58;;;;;;;23.43;41.56;100347.25;5030247;28;20503;-76
2022/09/14 09:00:44;;;;;;;7.82;4.75;;;;;;;23.59;40.45;100347.84;5030819;28;20030;-75
2022/09/14 09:03:28;;;;;;;7.50;3.47;;;;;;;23.37;40.92;100353.50;5027615;28;20056;-78
2022/09/14 09:06:08;;;;;;;5.85;3.38;;;;;;;23.38;42.00;100355.25;5028518;28;20037;-76
2022/09/14 09:08:59;;;;;;;4.47;3.00;;;;;;;23.54;41.29;100342.66;5028518;28;20037;-76
2022/09/14 09:11:40;;;;;;;4.80;3.05;;;;;;;23.53;42.59;100345.34;5029464;28;20029;-76
2022/09/14 09:14:15;;;;;;;13.27;4.63;;;;;;;23.65;40.03;100345.09;5024809;28;20029;-81
2022/09/14 09:16:42;;;;;;;5.28;2.88;;;;;;;23.78;38.96;100308.81;5029352;28;20037;-78
2022/09/14 09:19:20;;;;;;;8.18;3.53;;;;;;;24.19;39.24;100345.81;5030249;28;20056;-77
2022/09/14 09:21:47;;;;;;;6.32;2.63;;;;;;;24.21;38.49;100331.69;5025292;28;20472;-79
2022/09/14 09:24:48;;;;;;;4.75;2.33;;;;;;;24.49;37.94;100330.19;5012374;28;20483;-80
2022/09/14 09:27:15;;;;;;;3.38;2.25;;;;;;;24.65;37.13;100306.97;4969272;28;20093;-77
2022/09/14 09:29:41;;;;;;;5.15;2.55;;;;;;;24.81;37.70;100334.75;4967223;28;20031;-79
2022/09/14 09:32:15;;;;;;;3.47;2.15;;;;;;;24.75;36.25;100337.53;4968401;28;20067;-79
2022/09/14 09:34:41;;;;;;;5.68;2.35;;;;;;;24.43;37.28;100332.97;4968873;28;20031;-77
2022/09/14 09:37:13;;;;;;;3.47;2.55;;;;;;;24.45;37.92;100326.75;4968758;28;20166;-79
2022/09/14 09:39:38;;;;;;;2.85;2.28;;;;;;;24.60;39.14;100332.56;4984831;28;20042;-79
2022/09/14 09:42:14;;;;;;;7.40;3.17;;;;;;;24.56;36.76;100321.22;4968868;28;20035;-76
2022/09/14 09:45:02;;;;;;;4.25;2.50;;;;;;;24.76;36.62;100320.78;4968736;28;20035;-74
2022/09/14 09:47:40;;;;;;;5.95;3.40;;;;;;;25.09;35.89;100312.91;4968552;28;20113;-73
2022/09/14 09:50:16;;;;;;;4.35;2.40;;;;;;;25.45;36.06;100306.75;4968570;28;20039;-78
2022/09/14 09:52:50;;;;;;;4.70;2.45;;;;;;;25.44;36.70;100297.91;4967432;28;20027;-76
2022/09/14 09:55:21;;;;;;;3.38;2.40;;;;;;;25.37;37.90;100291.06;4967922;28;20541;-74
2022/09/14 09:57:47;;;;;;;4.07;2.70;;;;;;;25.39;37.82;100291.91;4968902;28;20070;-77
2022/09/14 10:00:13;;;;;;;6.97;2.90;;;;;;;25.64;40.79;100294.72;4966379;28;20070;-78
2022/09/14 10:02:39;;;;;;;3.45;2.45;;;;;;;25.90;37.82;100282.53;4995332;28;20041;-72
2022/09/14 10:05:17;;;;;;;3.22;2.50;;;;;;;25.53;38.55;100267.72;5029559;28;20022;-72
2022/09/14 10:07:49;;;;;;;9.50;5.28;;;;;;;25.86;38.39;100278.25;5028412;28;20634;-73
2022/09/14 10:10:18;;;;;;;13.52;10.93;;;;;;;26.11;38.23;100278.41;5029978;28;20536;-72
2022/09/14 10:12:51;;;;;;;8.95;5.20;;;;;;;25.89;40.02;100280.78;5030233;28;20049;-74
2022/09/14 10:15:21;;;;;;;2.58;2.20;;;;;;;25.76;37.16;100279.44;5029409;28;20034;-73
2022/09/14 10:18:12;;;;;;;16.23;8.65;;;;;;;26.06;36.93;100282.13;5029602;28;20395;-73
2022/09/14 10:20:43;;;;;;;4.03;2.38;;;;;;;25.92;36.04;100280.72;5030107;28;20104;-71
2022/09/14 10:23:18;;;;;;;5.55;2.40;;;;;;;26.02;35.39;100273.38;5030038;28;20377;-71
2022/09/14 10:25:49;;;;;;;3.15;2.08;;;;;;;25.75;34.86;100249.47;5030035;28;20037;-71
2022/09/14 10:28:26;;;;;;;5.38;2.35;;;;;;;26.10;35.71;100270.50;5045976;28;20029;-76
2022/09/14 10:31:06;;;;;;;6.53;2.65;;;;;;;26.39;36.46;100263.44;5052991;28;20032;-73
2022/09/14 10:33:34;;;;;;;5.43;2.45;;;;;;;26.76;36.51;100264.91;5053260;28;20023;-73
2022/09/14 10:36:20;;;;;;;3.75;2.20;;;;;;;26.61;34.37;100231.84;5053157;28;20463;-71
2022/09/14 10:38:53;;;;;;;2.95;2.20;;;;;;;26.80;34.50;100263.88;5052753;28;20045;-73
2022/09/14 10:41:29;;;;;;;4.32;2.40;;;;;;;26.69;35.96;100250.97;5052816;28;20061;-75
2022/09/14 10:44:20;;;;;;;7.20;4.25;;;;;;;26.86;37.80;100253.06;5051985;28;20108;-71
2022/09/14 10:46:58;;;;;;;3.72;2.00;;;;;;;27.07;33.95;100258.56;5048180;28;20487;-74
2022/09/14 10:49:23;;;;;;;3.75;1.92;;;;;;;27.14;33.82;100254.75;5033471;28;20561;-70
2022/09/14 10:52:19;;;;;;;2.83;2.00;;;;;;;27.29;34.75;100256.88;5051772;28;20021;-71
2022/09/14 10:54:44;;;;;;;2.40;1.70;;;;;;;27.20;31.98;100241.28;5047595;28;20042;-75
2022/09/14 10:57:27;;;;;;;4.10;2.20;;;;;;;27.38;31.75;100258.31;5041205;28;20043;-76
2022/09/14 10:59:59;;;;;;;3.85;2.03;;;;;;;27.23;32.10;100250.94;5047987;28;20466;-72
2022/09/14 11:02:49;;;;;;;2.63;1.80;;;;;;;27.32;30.94;100247.09;5051119;28;20036;-74
2022/09/14 11:05:23;;;;;;;2.97;2.03;;;;;;;27.64;30.41;100239.75;5050548;28;20060;-77
2022/09/14 11:08:17;;;;;;;3.85;1.60;;;;;;;27.72;29.86;100242.97;5044519;28;20802;-75
2022/09/14 11:11:12;;;;;;;2.42;1.70;;;;;;;27.46;29.28;100236.84;5040597;28;20037;-79
2022/09/14 11:13:56;;;;;;;2.83;1.85;;;;;;;27.65;30.49;100239.69;5050715;28;20037;-83
2022/09/14 11:16:22;;;;;;;4.00;2.10;;;;;;;27.70;30.76;100236.84;5051788;28;20024;-81
2022/09/14 11:19:30;;;;;;;3.17;1.50;;;;;;;27.89;28.46;100189.28;5033296;28;20033;-81
2022/09/14 11:22:18;;;;;;;2.47;1.40;;;;;;;27.80;28.34;100229.41;5045343;28;20495;-78
2022/09/14 11:24:59;;;;;;;3.93;1.80;;;;;;;27.33;28.24;100198.44;5050364;28;20119;-79
2022/09/14 11:27:49;;;;;;;8.23;4.25;;;;;;;27.49;30.50;100212.91;5050167;28;20769;-79
2022/09/14 11:30:27;;;;;;;6.78;3.15;;;;;;;27.60;30.37;100210.69;5048614;28;20916;-78
2022/09/14 11:33:06;;;;;;;5.10;1.80;;;;;;;27.67;30.41;100207.81;4963290;28;20033;-73
2022/09/14 11:35:59;;;;;;;4.55;1.80;;;;;;;27.91;29.30;100213.94;5042883;28;20028;-76
2022/09/14 11:38:34;;;;;;;1.95;1.58;;;;;;;28.29;27.21;100190.34;5040060;28;20052;-75
2022/09/14 11:41:27;;;;;;;1.73;1.42;;;;;;;28.39;26.99;100204.94;5043466;28;20029;-77
2022/09/14 11:44:05;;;;;;;2.33;1.45;;;;;;;28.50;27.03;100193.00;5047576;28;20036;-74
2022/09/14 11:46:45;;;;;;;4.57;1.92;;;;;;;28.28;28.00;100203.69;5050739;28;20052;-75
2022/09/14 11:49:14;;;;;;;3.85;1.60;;;;;;;28.14;28.84;100207.75;5050621;28;20387;-75
2022/09/14 11:51:45;;;;;;;;;;;;;;;27.91;29.55;100204.22;5051125;28;20103;-76
2022/09/14 11:54:21;;;;;;;4.63;2.28;;;;;;;28.18;29.39;100201.38;5050503;28;19920;-75
2022/09/14 11:56:55;;;;;;;2.47;1.50;;;;;;;28.30;29.03;100196.50;5050154;28;20029;-75
2022/09/14 11:59:50;;;;;;;3.80;1.65;;;;;;;28.80;26.25;100193.53;5050863;28;20115;-74
2022/09/14 12:02:22;;;;;;;4.45;1.80;;;;;;;28.85;27.74;100188.03;5049875;28;20509;-74
2022/09/14 12:05:09;;;;;;;3.85;1.38;;;;;;;28.31;25.96;100150.44;5049827;28;20445;-74
2022/09/14 12:07:44;;;;;;;3.58;1.95;;;;;;;28.51;27.43;100174.38;5045681;28;20042;-79
2022/09/14 12:10:12;;;;;;;8.57;4.60;;;;;;;28.71;26.26;100170.00;5031578;28;20025;-77
2022/09/14 12:12:42;;;;;;;1.65;1.40;;;;;;;28.98;27.62;100165.28;5050615;28;20028;-77
2022/09/14 12:15:39;;;;;;;10.20;4.68;;;;;;;28.98;26.17;100154.66;5050851;28;20060;-76
2022/09/14 12:18:04;;;;;;;22.90;10.10;;;;;;;28.99;24.09;100139.56;4946272;29;20123;-81
2022/09/14 12:20:36;;;;;;;3.95;1.58;;;;;;;29.02;24.13;100116.38;4941671;29;20601;-77
2022/09/14 12:23:20;;;;;;;3.97;1.67;;;;;;;29.10;24.08;100134.63;4950595;28;20039;-79
2022/09/14 12:26:15;;;;;;;2.72;1.48;;;;;;;29.09;25.26;100121.44;4950773;29;20039;-77
2022/09/14 12:28:54;;;;;;;2.42;1.20;;;;;;;29.19;23.59;100125.38;4912200;29;20044;-77
2022/09/14 12:31:59;;;;;;;3.47;1.40;;;;;;;29.13;26.80;100123.84;4912521;29;20131;-80
2022/09/14 12:34:29;;;;;;;2.15;1.20;;;;;;;29.10;23.68;100101.84;4861688;29;20124;-77
2022/09/14 12:36:57;;;;;;;1.98;1.30;;;;;;;28.73;23.70;100080.50;4874672;29;20461;-78